Terminal Aerodrome Forecast
Issued by NWS San Angelo, TX

Current Version | Previous Version | Text Only | Print | Product List | Glossary On
Versions: 1 2 3 4 5 6 7 8 9 10 11 12 13 14 15 16 17 18 19 20
000
FTUS44 KSJT 051700
TAFSJT
TAF
KSJT 051720Z 0518/0618 17017G27KT P6SM VCSH BKN035
     FM060200 15013G20KT P6SM VCSH BKN050
     FM060800 17012KT P6SM BKN012=

USA.gov is the U.S. government's official web portal to all federal, state and local government web resources and services.